Time;durP1;ratioP1;P1;durP2;ratioP2;P2;SDS_P1;SDS_P2;PMS_P1;PMS_P2;Temp;Humidity;BMP_temperature;BMP_pressure;BME280_temperature;BME280_humidity;BME280_pressure;Samples;Min_cycle;Max_cycle;Signal;HPM_P1;HPM_P2
2022/02/04 00:05:25;;;;;;;5.60;3.95;;;;;;;;;;5062852;28;20032;-69
2022/02/04 00:08:11;;;;;;;5.75;3.97;;;;;;;;;;5094105;28;20490;-69
2022/02/04 00:24:06;;;;;;;4.47;3.78;;;;;;;;;;5114145;28;20036;-69
2022/02/04 00:26:37;;;;;;;4.13;3.35;;;;;;;;;;5114421;28;20506;-69
2022/02/04 00:29:17;;;;;;;5.72;3.90;;;;;;;;;;5113938;28;20020;-69
2022/02/04 00:31:49;;;;;;;6.25;4.10;;;;;;;;;;5113962;28;20052;-69
2022/02/04 00:34:18;;;;;;;4.70;3.53;;;;;;;;;;5114033;28;20031;-69
2022/02/04 00:39:21;;;;;;;4.18;3.17;;;;;;;;;;5114585;28;20059;-69
2022/02/04 00:41:47;;;;;;;4.13;3.05;;;;;;;;;;5114202;28;20491;-69
2022/02/04 00:44:24;;;;;;;4.15;3.00;;;;;;;;;;5113724;28;20028;-69
2022/02/04 00:49:36;;;;;;;3.92;2.90;;;;;;;;;;5114132;28;20027;-69
2022/02/04 00:57:33;;;;;;;3.75;2.97;;;;;;;;;;5113759;28;20024;-69
2022/02/04 01:13:15;;;;;;;2.70;2.25;;;;;;;;;;5113513;28;20409;-69
2022/02/04 01:27:59;;;;;;;2.95;2.20;;;;;;;;;;5113008;28;20081;-69
2022/02/04 01:30:31;;;;;;;3.28;2.30;;;;;;;;;;5113495;28;20070;-69
2022/02/04 01:32:57;;;;;;;3.17;2.53;;;;;;;;;;5112903;28;20020;-69
2022/02/04 01:35:23;;;;;;;2.85;2.20;;;;;;;;;;5113276;28;20027;-69
2022/02/04 01:37:49;;;;;;;2.60;2.15;;;;;;;;;;5113134;28;20027;-69
2022/02/04 01:40:15;;;;;;;2.58;2.10;;;;;;;;;;5112938;28;20478;-69
2022/02/04 01:42:41;;;;;;;3.10;2.15;;;;;;;;;;5112709;28;20023;-70
2022/02/04 01:45:07;;;;;;;2.17;1.80;;;;;;;;;;5112925;28;20402;-69
2022/02/04 01:47:34;;;;;;;2.70;1.90;;;;;;;;;;5112863;28;20023;-69
2022/02/04 01:50:00;;;;;;;3.05;1.90;;;;;;;;;;5112829;28;20028;-69
2022/02/04 01:52:26;;;;;;;2.40;1.70;;;;;;;;;;5112696;28;20032;-69
2022/02/04 01:54:52;;;;;;;2.30;1.77;;;;;;;;;;5112515;28;20024;-69
2022/02/04 01:57:18;;;;;;;2.80;1.90;;;;;;;;;;5112808;28;20020;-69
2022/02/04 01:59:44;;;;;;;2.25;1.77;;;;;;;;;;5112738;28;20024;-69
2022/02/04 02:02:11;;;;;;;3.00;2.00;;;;;;;;;;5112747;28;20440;-69
2022/02/04 02:04:37;;;;;;;2.10;1.90;;;;;;;;;;5112621;28;20031;-69
2022/02/04 02:07:09;;;;;;;2.55;2.10;;;;;;;;;;5112470;28;20084;-69
2022/02/04 02:09:53;;;;;;;2.40;1.92;;;;;;;;;;5112603;28;20030;-69
2022/02/04 02:12:21;;;;;;;2.15;1.85;;;;;;;;;;5112525;28;20028;-69
2022/02/04 02:14:56;;;;;;;2.22;1.83;;;;;;;;;;5112757;28;20032;-69
2022/02/04 02:34:22;;;;;;;3.10;1.63;;;;;;;;;;5116890;28;20405;-69
2022/02/04 02:52:22;;;;;;;1.58;1.25;;;;;;;;;;5084382;28;20031;-68
2022/02/04 03:00:07;;;;;;;1.65;1.30;;;;;;;;;;5095439;28;20165;-69
2022/02/04 03:02:34;;;;;;;2.03;1.33;;;;;;;;;;5095302;28;20565;-69
2022/02/04 03:05:00;;;;;;;1.50;1.30;;;;;;;;;;5095383;28;20099;-69
2022/02/04 03:07:26;;;;;;;1.35;1.10;;;;;;;;;;5095538;28;20500;-69
2022/02/04 03:09:52;;;;;;;1.67;1.42;;;;;;;;;;5095390;28;20024;-69
2022/02/04 03:12:18;;;;;;;1.63;1.23;;;;;;;;;;5095278;28;20096;-69
2022/02/04 03:14:44;;;;;;;1.63;1.48;;;;;;;;;;5095422;28;20020;-69
2022/02/04 03:17:13;;;;;;;1.48;1.23;;;;;;;;;;5095405;28;20028;-69
2022/02/04 03:19:42;;;;;;;1.08;0.98;;;;;;;;;;5105208;28;20023;-70
2022/02/04 03:22:11;;;;;;;1.27;1.00;;;;;;;;;;5115927;28;20024;-70
2022/02/04 03:24:40;;;;;;;1.67;1.10;;;;;;;;;;5115248;28;20077;-70
2022/02/04 03:27:10;;;;;;;1.33;1.17;;;;;;;;;;5115653;28;20028;-70
2022/02/04 03:29:57;;;;;;;1.25;0.95;;;;;;;;;;5115685;28;20379;-70
2022/02/04 03:32:23;;;;;;;2.10;1.27;;;;;;;;;;5115309;28;20039;-70
2022/02/04 03:34:49;;;;;;;1.30;1.00;;;;;;;;;;5114645;28;20098;-69
2022/02/04 03:37:15;;;;;;;1.35;1.13;;;;;;;;;;5115457;28;20089;-69
2022/02/04 03:39:41;;;;;;;1.17;1.02;;;;;;;;;;5115182;28;20554;-70
2022/02/04 03:42:08;;;;;;;1.40;1.00;;;;;;;;;;5115223;28;20020;-70
2022/02/04 03:44:36;;;;;;;1.27;1.10;;;;;;;;;;5115081;28;20486;-70
2022/02/04 03:47:02;;;;;;;1.65;0.95;;;;;;;;;;5115428;28;20027;-70
2022/02/04 03:49:28;;;;;;;1.80;1.02;;;;;;;;;;5115338;28;20492;-70
2022/02/04 03:51:54;;;;;;;1.33;0.93;;;;;;;;;;5096992;28;20023;-70
2022/02/04 03:54:20;;;;;;;0.93;0.70;;;;;;;;;;5114941;28;20031;-70
2022/02/04 03:56:46;;;;;;;1.10;1.00;;;;;;;;;;5115054;28;20406;-70
2022/02/04 03:59:12;;;;;;;1.33;0.88;;;;;;;;;;5114871;28;20053;-70
2022/02/04 04:01:38;;;;;;;2.35;0.82;;;;;;;;;;5114865;28;20040;-70
2022/02/04 04:04:04;;;;;;;1.48;0.80;;;;;;;;;;5114570;28;20119;-70
2022/02/04 04:06:30;;;;;;;1.00;0.80;;;;;;;;;;5114612;28;20035;-70
2022/02/04 04:08:57;;;;;;;1.15;0.80;;;;;;;;;;5114663;28;20034;-70
2022/02/04 04:11:23;;;;;;;1.15;0.80;;;;;;;;;;5114733;28;20529;-70
2022/02/04 04:13:49;;;;;;;0.90;0.80;;;;;;;;;;5114433;28;20031;-70
2022/02/04 04:16:18;;;;;;;0.70;0.60;;;;;;;;;;5114417;28;20027;-70
2022/02/04 04:18:44;;;;;;;0.70;0.70;;;;;;;;;;5114482;28;20035;-70
2022/02/04 04:21:10;;;;;;;0.88;0.70;;;;;;;;;;5114361;28;20032;-70
2022/02/04 04:23:36;;;;;;;0.95;0.85;;;;;;;;;;5114242;28;20072;-70
2022/02/04 04:26:02;;;;;;;1.00;0.90;;;;;;;;;;5114444;28;20028;-70
2022/02/04 04:28:28;;;;;;;0.77;0.70;;;;;;;;;;5114343;28;20015;-70
2022/02/04 04:30:54;;;;;;;1.02;0.80;;;;;;;;;;5114360;28;20548;-70
2022/02/04 04:33:20;;;;;;;1.30;0.70;;;;;;;;;;5114143;28;20023;-70
2022/02/04 04:35:46;;;;;;;1.02;0.93;;;;;;;;;;5114088;28;20028;-70
2022/02/04 04:38:25;;;;;;;0.63;0.63;;;;;;;;;;5114056;28;20023;-70
2022/02/04 04:43:41;;;;;;;0.65;0.60;;;;;;;;;;5113780;28;20035;-70
2022/02/04 05:29:42;;;;;;;0.60;0.50;;;;;;;;;;5113006;28;20464;-70
2022/02/04 05:32:08;;;;;;;0.60;0.50;;;;;;;;;;5113189;28;20036;-70
2022/02/04 05:34:34;;;;;;;0.50;0.40;;;;;;;;;;5112963;28;20048;-70
2022/02/04 05:37:05;;;;;;;0.73;0.50;;;;;;;;;;5113306;28;20102;-70
2022/02/04 05:39:40;;;;;;;0.80;0.70;;;;;;;;;;5113171;28;20016;-70
2022/02/04 05:42:08;;;;;;;0.55;0.50;;;;;;;;;;5113207;28;20046;-70
2022/02/04 05:44:40;;;;;;;0.70;0.57;;;;;;;;;;5112790;28;20043;-70
2022/02/04 05:47:14;;;;;;;0.57;0.50;;;;;;;;;;5113259;28;20016;-70
2022/02/04 05:49:47;;;;;;;0.75;0.60;;;;;;;;;;5112750;28;20023;-70
2022/02/04 05:52:21;;;;;;;0.67;0.60;;;;;;;;;;5113174;28;20020;-70
2022/02/04 05:57:23;;;;;;;2.53;0.60;;;;;;;;;;5092798;28;20103;-70
2022/02/04 06:05:05;;;;;;;0.93;0.65;;;;;;;;;;5092495;28;20028;-70
2022/02/04 06:23:17;;;;;;;0.60;0.45;;;;;;;;;;5112676;28;20050;-70
2022/02/04 06:25:44;;;;;;;0.40;0.40;;;;;;;;;;5112381;28;20031;-70
2022/02/04 06:28:10;;;;;;;0.40;0.40;;;;;;;;;;5112600;28;20027;-70
2022/02/04 06:30:39;;;;;;;1.00;0.65;;;;;;;;;;5112462;28;20020;-70
2022/02/04 06:33:05;;;;;;;0.47;0.30;;;;;;;;;;5112759;28;20073;-70
2022/02/04 06:35:31;;;;;;;1.02;0.40;;;;;;;;;;5093987;28;20020;-70
2022/02/04 06:37:58;;;;;;;0.73;0.50;;;;;;;;;;5112565;28;20510;-70
2022/02/04 06:40:24;;;;;;;0.73;0.55;;;;;;;;;;5112349;28;20035;-70
2022/02/04 06:42:50;;;;;;;1.67;0.52;;;;;;;;;;5112492;28;20496;-70
2022/02/04 06:45:16;;;;;;;0.60;0.45;;;;;;;;;;5112101;28;20026;-70
2022/02/04 06:47:43;;;;;;;0.50;0.35;;;;;;;;;;5112265;28;20486;-70
2022/02/04 06:50:09;;;;;;;0.60;0.60;;;;;;;;;;5112178;28;20023;-70
2022/02/04 06:52:36;;;;;;;0.40;0.40;;;;;;;;;;5112090;28;20490;-70
2022/02/04 06:55:02;;;;;;;0.88;0.40;;;;;;;;;;5111904;28;20024;-70
2022/02/04 06:57:28;;;;;;;0.98;0.70;;;;;;;;;;5111223;28;20027;-69
2022/02/04 06:59:54;;;;;;;0.50;0.40;;;;;;;;;;5112215;28;20443;-69
2022/02/04 07:02:22;;;;;;;0.30;0.30;;;;;;;;;;5111768;28;20044;-69
2022/02/04 07:04:48;;;;;;;0.60;0.40;;;;;;;;;;5110066;28;20023;-69
2022/02/04 07:07:16;;;;;;;1.15;0.73;;;;;;;;;;5105188;28;20027;-69
2022/02/04 07:09:57;;;;;;;2.35;0.68;;;;;;;;;;5106286;28;20047;-70
2022/02/04 07:12:35;;;;;;;0.90;0.60;;;;;;;;;;5114700;28;20096;-69
2022/02/04 07:15:53;;;;;;;0.68;0.55;;;;;;;;;;5114747;28;20022;-69
2022/02/04 07:18:02;;;;;;;0.88;0.40;;;;;;;;;;5105567;28;20050;-69
2022/02/04 07:20:28;;;;;;;0.70;0.50;;;;;;;;;;5098871;28;20050;-69
2022/02/04 07:22:54;;;;;;;0.82;0.60;;;;;;;;;;5109904;28;20027;-69
2022/02/04 07:25:20;;;;;;;0.88;0.52;;;;;;;;;;5114540;28;20107;-69
2022/02/04 07:27:46;;;;;;;0.70;0.60;;;;;;;;;;5114384;28;20019;-69
2022/02/04 07:30:15;;;;;;;0.60;0.50;;;;;;;;;;5114435;28;20039;-69
2022/02/04 07:32:55;;;;;;;1.25;0.63;;;;;;;;;;5114841;28;20390;-69
2022/02/04 07:40:55;;;;;;;0.80;0.50;;;;;;;;;;5094704;28;20031;-69
2022/02/04 07:43:22;;;;;;;0.75;0.50;;;;;;;;;;5114288;28;20038;-69
2022/02/04 07:45:49;;;;;;;1.25;0.70;;;;;;;;;;5114335;28;20020;-69
2022/02/04 07:48:15;;;;;;;1.10;0.70;;;;;;;;;;5114345;28;20027;-70
2022/02/04 07:50:43;;;;;;;1.25;0.45;;;;;;;;;;5113567;28;20020;-69
2022/02/04 07:53:09;;;;;;;1.20;0.70;;;;;;;;;;5114326;28;20157;-69
2022/02/04 07:55:35;;;;;;;1.23;0.90;;;;;;;;;;5112770;28;20074;-69
2022/02/04 07:58:01;;;;;;;1.45;0.80;;;;;;;;;;5109201;27;20026;-69
2022/02/04 08:00:28;;;;;;;1.17;0.80;;;;;;;;;;5087401;28;20440;-69
2022/02/04 08:02:54;;;;;;;1.42;1.05;;;;;;;;;;5114011;27;20090;-69
2022/02/04 08:05:25;;;;;;;3.65;0.95;;;;;;;;;;5107151;27;20310;-69
2022/02/04 08:07:58;;;;;;;2.60;1.05;;;;;;;;;;5114502;27;20045;-74
2022/02/04 08:16:16;;;;;;;2.13;1.20;;;;;;;;;;5104909;27;20033;-72
2022/02/04 08:21:37;;;;;;;2.92;0.82;;;;;;;;;;5105730;28;20024;-71
2022/02/04 08:27:05;;;;;;;1.55;1.00;;;;;;;;;;5095548;27;19922;-71
2022/02/04 08:29:51;;;;;;;3.65;1.02;;;;;;;;;;5103004;27;20031;-70
2022/02/04 08:35:22;;;;;;;2.20;1.20;;;;;;;;;;5110107;27;20020;-71
2022/02/04 08:51:27;;;;;;;1.60;0.98;;;;;;;;;;5113171;27;20028;-70
2022/02/04 08:56:43;;;;;;;1.83;1.13;;;;;;;;;;5105050;27;20076;-71
2022/02/04 08:59:28;;;;;;;1.52;1.10;;;;;;;;;;5103815;27;20042;-70
2022/02/04 09:02:16;;;;;;;3.03;0.93;;;;;;;;;;5098383;27;20113;-70
2022/02/04 09:04:49;;;;;;;1.42;1.02;;;;;;;;;;5104992;27;20019;-70
2022/02/04 09:07:21;;;;;;;1.73;1.03;;;;;;;;;;5121246;27;20026;-70
2022/02/04 09:10:00;;;;;;;2.50;1.27;;;;;;;;;;5102268;27;20301;-70
2022/02/04 09:22:50;;;;;;;1.67;1.00;;;;;;;;;;5086123;28;20413;-71
2022/02/04 09:25:17;;;;;;;1.55;0.80;;;;;;;;;;5093248;27;20062;-70
2022/02/04 09:27:44;;;;;;;4.60;1.42;;;;;;;;;;5092213;27;20592;-70
2022/02/04 09:30:12;;;;;;;3.10;1.10;;;;;;;;;;5101799;27;20027;-71
2022/02/04 09:32:39;;;;;;;2.67;1.52;;;;;;;;;;5115115;27;20079;-70
2022/02/04 09:35:15;;;;;;;4.20;1.08;;;;;;;;;;5108465;27;20032;-70
2022/02/04 09:37:42;;;;;;;5.07;1.02;;;;;;;;;;5098304;27;20428;-70
2022/02/04 09:40:09;;;;;;;2.30;1.10;;;;;;;;;;5109701;27;20489;-72
2022/02/04 09:42:37;;;;;;;3.67;1.13;;;;;;;;;;5111416;27;20886;-73
2022/02/04 09:45:03;;;;;;;2.05;1.00;;;;;;;;;;5085957;28;20567;-73
2022/02/04 09:47:34;;;;;;;1.50;0.90;;;;;;;;;;5105426;28;20030;-73
2022/02/04 09:50:05;;;;;;;1.58;0.77;;;;;;;;;;5105163;28;20069;-73
2022/02/04 10:22:06;;;;;;;3.95;1.25;;;;;;;;;;5114539;28;20479;-71
2022/02/04 10:24:34;;;;;;;4.85;1.20;;;;;;;;;;5092359;28;20034;-71
2022/02/04 10:27:17;;;;;;;3.67;1.10;;;;;;;;;;5110773;28;20118;-71
2022/02/04 10:29:53;;;;;;;6.57;1.15;;;;;;;;;;5077086;28;20012;-71
2022/02/04 10:32:24;;;;;;;5.90;1.27;;;;;;;;;;5091777;28;20034;-71
2022/02/04 10:35:00;;;;;;;2.70;1.00;;;;;;;;;;5110130;28;20494;-71
2022/02/04 10:37:29;;;;;;;3.08;1.20;;;;;;;;;;5098867;28;20082;-71
2022/02/04 10:40:17;;;;;;;2.97;1.10;;;;;;;;;;5110020;28;20581;-71
2022/02/04 10:42:59;;;;;;;2.60;1.30;;;;;;;;;;5114135;28;20028;-71
2022/02/04 10:45:50;;;;;;;5.43;1.38;;;;;;;;;;5111270;28;20019;-71
2022/02/04 10:48:37;;;;;;;2.47;1.00;;;;;;;;;;5113826;28;20073;-71
2022/02/04 11:07:16;;;;;;;3.53;1.48;;;;;;;;;;5113927;27;20031;-71
2022/02/04 11:10:34;;;;;;;6.13;1.25;;;;;;;;;;5097778;28;20008;-71
2022/02/04 11:35:08;;;;;;;2.65;1.00;;;;;;;;;;5114188;28;20085;-71
2022/02/04 11:55:12;;;;;;;1.52;1.10;;;;;;;;;;5112474;28;20047;-70
2022/02/04 11:57:40;;;;;;;7.85;1.80;;;;;;;;;;5095024;28;20020;-70
2022/02/04 12:00:09;;;;;;;5.53;1.05;;;;;;;;;;5113515;28;20016;-70
2022/02/04 12:02:36;;;;;;;3.67;1.10;;;;;;;;;;5113958;28;20067;-70
2022/02/04 12:05:08;;;;;;;4.00;1.35;;;;;;;;;;5113672;28;20107;-71
2022/02/04 12:07:35;;;;;;;4.10;1.25;;;;;;;;;;5114173;28;20023;-71
2022/02/04 12:10:02;;;;;;;1.70;1.10;;;;;;;;;;5113394;27;20793;-71
2022/02/04 12:15:26;;;;;;;4.85;1.30;;;;;;;;;;5091852;28;20402;-70
2022/02/04 12:17:52;;;;;;;11.73;1.52;;;;;;;;;;5093288;28;20035;-70
2022/02/04 12:20:38;;;;;;;4.95;1.20;;;;;;;;;;5105092;27;20042;-70
2022/02/04 12:23:04;;;;;;;5.57;1.90;;;;;;;;;;5113018;28;20028;-71
2022/02/04 12:25:49;;;;;;;1.65;1.15;;;;;;;;;;5113389;28;20027;-71
2022/02/04 12:28:35;;;;;;;3.28;1.00;;;;;;;;;;5110617;27;20028;-71
2022/02/04 12:31:14;;;;;;;3.17;1.58;;;;;;;;;;5120986;27;20042;-71
2022/02/04 12:33:50;;;;;;;3.10;1.05;;;;;;;;;;5133638;27;20027;-71
2022/02/04 12:36:17;;;;;;;1.23;0.80;;;;;;;;;;5132821;27;20046;-71
2022/02/04 12:38:43;;;;;;;1.75;0.80;;;;;;;;;;5132618;27;20554;-71
2022/02/04 12:41:10;;;;;;;2.28;1.00;;;;;;;;;;5128329;27;20027;-71
2022/02/04 12:43:39;;;;;;;2.78;1.00;;;;;;;;;;5113083;28;20035;-70
2022/02/04 12:46:05;;;;;;;6.05;1.30;;;;;;;;;;5111204;28;20028;-70
2022/02/04 12:48:32;;;;;;;2.58;1.20;;;;;;;;;;5118711;27;20023;-70
2022/02/04 12:50:58;;;;;;;4.38;1.05;;;;;;;;;;5122888;27;20390;-70
2022/02/04 12:53:25;;;;;;;2.90;1.20;;;;;;;;;;5112819;27;20027;-70
2022/02/04 12:56:35;;;;;;;3.00;1.00;;;;;;;;;;5132187;27;20027;-71
2022/02/04 12:59:10;;;;;;;4.38;1.02;;;;;;;;;;5131246;27;20039;-70
2022/02/04 13:07:40;;;;;;;3.20;0.95;;;;;;;;;;5115131;27;20026;-71
2022/02/04 13:10:07;;;;;;;2.25;1.00;;;;;;;;;;5121793;27;20060;-72
2022/02/04 13:12:53;;;;;;;4.68;0.90;;;;;;;;;;5131161;27;20027;-72
2022/02/04 13:15:19;;;;;;;1.75;0.80;;;;;;;;;;5117679;27;20019;-72
2022/02/04 13:17:46;;;;;;;2.75;1.13;;;;;;;;;;5130669;27;20027;-73
2022/02/04 13:20:15;;;;;;;2.05;0.90;;;;;;;;;;5118473;27;20035;-72
2022/02/04 13:22:41;;;;;;;2.38;1.02;;;;;;;;;;5127583;27;20031;-72
2022/02/04 13:25:19;;;;;;;1.77;1.13;;;;;;;;;;5126841;27;20015;-71
2022/02/04 13:28:04;;;;;;;1.63;0.90;;;;;;;;;;5123520;27;20023;-71
2022/02/04 13:30:31;;;;;;;1.15;0.73;;;;;;;;;;5111513;27;20050;-71
2022/02/04 13:32:58;;;;;;;3.15;1.10;;;;;;;;;;5122063;27;20055;-71
2022/02/04 13:35:26;;;;;;;3.92;1.02;;;;;;;;;;5115385;27;20052;-70
2022/02/04 13:37:55;;;;;;;4.30;1.13;;;;;;;;;;5123875;27;20674;-69
2022/02/04 13:40:31;;;;;;;7.30;1.13;;;;;;;;;;5118838;27;20048;-72
2022/02/04 13:43:04;;;;;;;1.92;0.90;;;;;;;;;;5108967;27;20042;-71
2022/02/04 13:45:42;;;;;;;1.55;0.90;;;;;;;;;;5112869;27;20031;-71
2022/02/04 13:48:24;;;;;;;2.08;1.00;;;;;;;;;;5115837;27;20526;-70
2022/02/04 13:51:39;;;;;;;1.35;0.80;;;;;;;;;;5116556;27;20434;-71
2022/02/04 13:54:08;;;;;;;2.05;1.00;;;;;;;;;;5115779;27;20042;-72
2022/02/04 13:56:46;;;;;;;2.22;1.10;;;;;;;;;;5124050;27;20492;-70
2022/02/04 13:59:33;;;;;;;1.67;0.90;;;;;;;;;;5115477;27;20087;-71
2022/02/04 14:02:08;;;;;;;2.90;1.08;;;;;;;;;;5119683;27;20027;-71
2022/02/04 14:04:34;;;;;;;1.58;0.90;;;;;;;;;;5105221;28;20056;-71
2022/02/04 14:07:11;;;;;;;2.97;1.10;;;;;;;;;;5105564;28;20023;-70
2022/02/04 14:09:44;;;;;;;3.15;0.90;;;;;;;;;;5125993;28;20034;-70
2022/02/04 14:12:19;;;;;;;2.85;0.88;;;;;;;;;;5126581;28;20546;-71
2022/02/04 14:14:56;;;;;;;1.98;1.02;;;;;;;;;;5109955;28;20023;-71
2022/02/04 14:17:27;;;;;;;5.40;1.23;;;;;;;;;;5114371;28;20072;-71
2022/02/04 14:19:53;;;;;;;1.30;0.95;;;;;;;;;;5109287;27;20032;-72
2022/02/04 14:22:19;;;;;;;1.85;0.95;;;;;;;;;;5122116;27;20024;-71
2022/02/04 14:24:49;;;;;;;3.08;1.35;;;;;;;;;;5115494;27;20055;-70
2022/02/04 14:27:15;;;;;;;1.80;1.30;;;;;;;;;;5122154;27;20015;-70
2022/02/04 14:30:04;;;;;;;3.83;1.30;;;;;;;;;;5116616;27;20027;-71
2022/02/04 14:32:44;;;;;;;2.25;0.75;;;;;;;;;;5129607;27;20015;-70
2022/02/04 14:35:27;;;;;;;1.73;1.00;;;;;;;;;;5108509;28;20028;-69
2022/02/04 14:52:02;;;;;;;1.90;0.70;;;;;;;;;;5109330;28;20035;-72
2022/02/04 15:03:14;;;;;;;2.35;1.45;;;;;;;;;;5128316;27;20085;-71
2022/02/04 15:05:44;;;;;;;1.83;1.00;;;;;;;;;;5108806;27;20185;-71
2022/02/04 15:08:14;;;;;;;1.83;0.93;;;;;;;;;;5107713;28;20096;-71
2022/02/04 15:10:43;;;;;;;1.42;1.00;;;;;;;;;;5107512;28;20070;-70
2022/02/04 15:13:13;;;;;;;1.33;1.00;;;;;;;;;;5109176;28;20027;-71
2022/02/04 15:15:39;;;;;;;2.10;1.10;;;;;;;;;;5110795;28;20085;-70
2022/02/04 15:18:06;;;;;;;2.88;1.02;;;;;;;;;;5114567;27;20724;-69
2022/02/04 15:20:32;;;;;;;2.42;1.25;;;;;;;;;;5107480;28;20028;-68
2022/02/04 15:22:58;;;;;;;1.77;0.98;;;;;;;;;;5107738;28;20390;-69
2022/02/04 15:25:24;;;;;;;3.55;1.35;;;;;;;;;;5124845;27;20008;-69
2022/02/04 15:30:32;;;;;;;3.35;0.93;;;;;;;;;;5127760;27;20050;-68
2022/02/04 15:32:58;;;;;;;1.50;1.00;;;;;;;;;;5128019;27;20059;-71
2022/02/04 15:35:25;;;;;;;1.42;0.90;;;;;;;;;;5128403;27;20099;-69
2022/02/04 15:37:51;;;;;;;1.23;0.85;;;;;;;;;;5127026;27;20228;-71
2022/02/04 15:40:17;;;;;;;1.42;0.95;;;;;;;;;;5120069;27;20023;-71
2022/02/04 15:42:52;;;;;;;1.90;1.08;;;;;;;;;;5108268;28;20387;-71
2022/02/04 15:51:01;;;;;;;1.73;0.90;;;;;;;;;;5108734;28;20024;-70
2022/02/04 15:53:58;;;;;;;2.08;0.88;;;;;;;;;;5106371;28;20039;-69
2022/02/04 16:06:47;;;;;;;0.90;0.90;;;;;;;;;;5109825;28;20020;-66
2022/02/04 16:09:14;;;;;;;1.50;1.00;;;;;;;;;;5114218;28;20051;-67
2022/02/04 16:14:31;;;;;;;1.65;1.15;;;;;;;;;;5114095;28;20123;-67
2022/02/04 16:17:27;;;;;;;2.53;1.10;;;;;;;;;;5113893;28;20482;-67
2022/02/04 16:19:47;;;;;;;2.25;1.17;;;;;;;;;;5106072;28;20433;-66
2022/02/04 16:22:33;;;;;;;1.48;1.00;;;;;;;;;;5093350;28;20295;-66
2022/02/04 16:30:11;;;;;;;1.98;0.90;;;;;;;;;;5093446;28;20039;-66
2022/02/04 16:32:37;;;;;;;1.45;1.00;;;;;;;;;;5093159;28;20059;-66
2022/02/04 16:35:05;;;;;;;3.90;1.20;;;;;;;;;;5093573;28;20483;-66
2022/02/04 16:37:37;;;;;;;1.00;0.90;;;;;;;;;;5075005;28;20433;-66
2022/02/04 16:40:09;;;;;;;2.45;1.15;;;;;;;;;;5088755;28;20047;-67
2022/02/04 16:42:35;;;;;;;1.35;0.90;;;;;;;;;;5099625;28;20020;-66
2022/02/04 16:45:01;;;;;;;1.50;0.85;;;;;;;;;;5112928;28;20120;-66
2022/02/04 16:47:27;;;;;;;1.73;0.88;;;;;;;;;;5113522;28;20026;-66
2022/02/04 16:49:54;;;;;;;1.80;1.10;;;;;;;;;;5113636;28;20035;-66
2022/02/04 16:52:20;;;;;;;1.63;0.95;;;;;;;;;;5113420;28;20397;-66
2022/02/04 16:54:46;;;;;;;1.35;1.10;;;;;;;;;;5093560;28;20100;-66
2022/02/04 16:57:12;;;;;;;1.00;0.90;;;;;;;;;;5097912;28;20265;-66
2022/02/04 16:59:38;;;;;;;1.45;1.30;;;;;;;;;;5113992;28;20023;-66
2022/02/04 17:02:06;;;;;;;1.75;1.00;;;;;;;;;;5096311;27;20027;-66
2022/02/04 17:04:32;;;;;;;3.05;0.98;;;;;;;;;;5134191;27;20023;-66
2022/02/04 17:07:02;;;;;;;1.50;0.98;;;;;;;;;;5133743;27;20027;-66
2022/02/04 17:09:42;;;;;;;4.15;1.33;;;;;;;;;;5134007;27;20421;-66
2022/02/04 17:12:11;;;;;;;1.67;0.95;;;;;;;;;;5133803;27;20019;-66
2022/02/04 17:14:39;;;;;;;2.38;1.25;;;;;;;;;;5134072;27;20033;-66
2022/02/04 17:17:06;;;;;;;1.85;1.30;;;;;;;;;;5133710;27;20031;-67
2022/02/04 17:19:41;;;;;;;1.88;1.02;;;;;;;;;;5128278;27;20023;-67
2022/02/04 17:22:10;;;;;;;1.45;1.10;;;;;;;;;;5112793;28;20032;-67
2022/02/04 17:24:36;;;;;;;3.35;1.17;;;;;;;;;;5113495;28;20015;-67
2022/02/04 17:27:03;;;;;;;2.17;1.15;;;;;;;;;;5112911;28;20053;-67
2022/02/04 17:29:30;;;;;;;1.65;0.90;;;;;;;;;;5112789;28;20095;-67
2022/02/04 17:31:56;;;;;;;4.68;1.15;;;;;;;;;;5112926;28;20200;-67
2022/02/04 17:34:22;;;;;;;2.08;1.15;;;;;;;;;;5112882;28;20081;-67
2022/02/04 17:36:49;;;;;;;2.42;1.10;;;;;;;;;;5112920;28;20089;-67
2022/02/04 17:39:18;;;;;;;1.95;1.20;;;;;;;;;;5112681;28;20024;-67
2022/02/04 17:41:45;;;;;;;1.30;1.17;;;;;;;;;;5112720;28;20020;-67
2022/02/04 17:44:14;;;;;;;4.18;1.00;;;;;;;;;;5112753;28;20390;-67
2022/02/04 17:46:41;;;;;;;2.40;1.35;;;;;;;;;;5109289;28;20028;-67
2022/02/04 17:49:14;;;;;;;1.92;1.42;;;;;;;;;;5094299;28;20493;-67
2022/02/04 17:51:53;;;;;;;2.00;1.40;;;;;;;;;;5112914;28;20410;-67
2022/02/04 17:54:29;;;;;;;2.42;1.20;;;;;;;;;;5112453;28;20016;-67
2022/02/04 17:57:08;;;;;;;1.65;1.00;;;;;;;;;;5092538;28;20475;-67
2022/02/04 18:02:29;;;;;;;2.63;1.10;;;;;;;;;;5092032;28;20040;-67
2022/02/04 18:07:29;;;;;;;1.58;1.05;;;;;;;;;;5131507;27;20023;-66
2022/02/04 18:09:55;;;;;;;1.70;1.15;;;;;;;;;;5132854;28;20055;-66
2022/02/04 18:12:24;;;;;;;2.25;1.30;;;;;;;;;;5132694;28;20026;-66
2022/02/04 18:14:50;;;;;;;3.40;1.17;;;;;;;;;;5132843;28;20034;-66
2022/02/04 18:17:17;;;;;;;3.15;1.50;;;;;;;;;;5133138;28;20023;-66
2022/02/04 18:19:44;;;;;;;2.13;1.10;;;;;;;;;;5133037;28;20030;-66
2022/02/04 18:22:10;;;;;;;2.45;1.38;;;;;;;;;;5114771;28;20090;-66
2022/02/04 18:24:38;;;;;;;1.75;1.45;;;;;;;;;;5112345;28;20081;-66
2022/02/04 18:27:07;;;;;;;1.45;1.17;;;;;;;;;;5112252;28;20095;-67
2022/02/04 18:29:33;;;;;;;2.08;1.23;;;;;;;;;;5112323;28;20027;-67
2022/02/04 18:32:00;;;;;;;1.42;1.08;;;;;;;;;;5112261;28;20400;-67
2022/02/04 18:34:26;;;;;;;2.83;1.20;;;;;;;;;;5112485;28;20025;-67
2022/02/04 18:36:55;;;;;;;2.72;1.23;;;;;;;;;;5112127;28;20023;-67
2022/02/04 18:40:25;;;;;;;2.00;1.20;;;;;;;;;;5112387;28;20030;-67
2022/02/04 18:42:26;;;;;;;2.28;1.20;;;;;;;;;;5097639;28;20035;-67
2022/02/04 18:45:09;;;;;;;2.33;1.45;;;;;;;;;;5112052;28;20039;-67
2022/02/04 18:48:00;;;;;;;3.07;1.10;;;;;;;;;;5112378;28;20044;-67
2022/02/04 18:50:32;;;;;;;2.33;1.65;;;;;;;;;;5111256;28;20424;-67
2022/02/04 18:58:19;;;;;;;2.25;1.50;;;;;;;;;;5111919;28;20405;-67
2022/02/04 19:00:46;;;;;;;1.33;1.17;;;;;;;;;;5112363;28;20019;-67
2022/02/04 19:03:20;;;;;;;2.33;1.20;;;;;;;;;;5111587;28;20040;-67
2022/02/04 19:06:04;;;;;;;;;;;;;;;;;;5112465;28;20027;-67
2022/02/04 19:08:37;;;;;;;3.10;1.10;;;;;;;;;;5115777;28;19952;-67
2022/02/04 19:11:03;;;;;;;1.83;1.23;;;;;;;;;;5116165;28;20019;-67
2022/02/04 19:13:40;;;;;;;1.35;1.13;;;;;;;;;;5115570;28;20027;-67
2022/02/04 19:16:15;;;;;;;2.28;1.45;;;;;;;;;;5115890;28;20023;-67
2022/02/04 19:18:57;;;;;;;3.30;1.67;;;;;;;;;;5115067;28;20020;-67
2022/02/04 19:24:10;;;;;;;1.25;1.08;;;;;;;;;;5115291;28;20409;-67
2022/02/04 19:26:37;;;;;;;1.45;1.33;;;;;;;;;;5115309;28;20153;-67
2022/02/04 19:29:03;;;;;;;1.95;1.50;;;;;;;;;;5115205;28;20034;-67
2022/02/04 19:31:32;;;;;;;1.20;1.10;;;;;;;;;;5115590;28;20019;-67
2022/02/04 19:33:58;;;;;;;1.65;1.10;;;;;;;;;;5115262;28;20509;-67
2022/02/04 19:36:24;;;;;;;1.63;0.95;;;;;;;;;;5115767;28;20498;-67
2022/02/04 19:38:51;;;;;;;1.58;1.02;;;;;;;;;;5115243;28;20019;-67
2022/02/04 19:41:21;;;;;;;1.90;0.88;;;;;;;;;;5115375;28;20028;-67
2022/02/04 19:43:50;;;;;;;2.28;1.05;;;;;;;;;;5115123;28;20081;-67
2022/02/04 19:46:21;;;;;;;1.40;1.00;;;;;;;;;;5115109;28;20486;-67
2022/02/04 19:48:54;;;;;;;2.08;1.20;;;;;;;;;;5115268;28;20020;-67
2022/02/04 19:51:28;;;;;;;1.35;0.90;;;;;;;;;;5115410;28;20098;-67
2022/02/04 20:07:38;;;;;;;1.70;1.00;;;;;;;;;;5114901;28;20616;-67
2022/02/04 20:13:40;;;;;;;1.42;1.00;;;;;;;;;;5114975;28;20030;-67
2022/02/04 20:23:46;;;;;;;1.65;1.25;;;;;;;;;;5114387;28;20038;-67
2022/02/04 20:26:12;;;;;;;1.50;1.02;;;;;;;;;;5114494;28;20023;-67
2022/02/04 20:28:38;;;;;;;1.40;0.95;;;;;;;;;;5114521;28;20023;-67
2022/02/04 20:31:04;;;;;;;1.30;1.08;;;;;;;;;;5114276;28;20115;-67
2022/02/04 20:33:31;;;;;;;1.67;1.02;;;;;;;;;;5114686;28;20539;-67
2022/02/04 20:35:57;;;;;;;1.42;1.00;;;;;;;;;;5114103;28;20057;-67
2022/02/04 20:38:30;;;;;;;1.60;1.20;;;;;;;;;;5114277;28;20402;-67
2022/02/04 20:40:58;;;;;;;1.15;1.02;;;;;;;;;;5114339;28;20031;-67
2022/02/04 20:43:30;;;;;;;1.27;0.93;;;;;;;;;;5094093;28;20525;-67
2022/02/04 20:45:57;;;;;;;1.45;1.10;;;;;;;;;;5093981;28;20060;-67
2022/02/04 20:48:31;;;;;;;1.13;0.98;;;;;;;;;;5093694;28;20085;-67
2022/02/04 20:50:57;;;;;;;1.15;0.90;;;;;;;;;;5093385;28;20036;-67
2022/02/04 20:53:23;;;;;;;1.88;1.10;;;;;;;;;;5102708;28;20375;-67
2022/02/04 20:55:49;;;;;;;1.52;1.17;;;;;;;;;;5113675;28;20106;-67
2022/02/04 20:58:15;;;;;;;1.17;1.02;;;;;;;;;;5113905;28;20035;-67
2022/02/04 21:00:41;;;;;;;1.70;1.00;;;;;;;;;;5113443;28;20023;-67
2022/02/04 21:03:12;;;;;;;1.40;1.13;;;;;;;;;;5095298;28;20039;-67
2022/02/04 21:05:50;;;;;;;1.17;0.80;;;;;;;;;;5113311;28;20106;-67
2022/02/04 21:13:47;;;;;;;1.42;1.00;;;;;;;;;;5113607;28;20112;-67
2022/02/04 21:16:14;;;;;;;1.45;1.15;;;;;;;;;;5113303;28;20432;-67
2022/02/04 21:18:40;;;;;;;2.03;1.20;;;;;;;;;;5113466;28;20059;-67
2022/02/04 21:21:06;;;;;;;1.40;1.02;;;;;;;;;;5113455;28;20489;-67
2022/02/04 21:23:32;;;;;;;1.83;1.20;;;;;;;;;;5113630;28;20525;-67
2022/02/04 21:26:01;;;;;;;1.35;1.25;;;;;;;;;;5113278;28;20085;-68
2022/02/04 21:28:29;;;;;;;1.25;0.95;;;;;;;;;;5113155;28;20038;-67
2022/02/04 21:30:55;;;;;;;3.05;1.25;;;;;;;;;;5112906;28;20038;-67
2022/02/04 21:38:45;;;;;;;1.80;1.20;;;;;;;;;;5113459;28;20034;-67
2022/02/04 21:41:11;;;;;;;1.42;1.30;;;;;;;;;;5112668;28;20027;-67
2022/02/04 21:43:41;;;;;;;1.80;1.25;;;;;;;;;;5113224;28;20390;-67